sensor_id;sensor_type;location;lat;lon;timestamp;P1;durP1;ratioP1;P2;durP2;ratioP2
74519;SDS011;63002;48.134;-1.948;2023-09-19T05:02:55;3.57;;;0.70;;
74519;SDS011;63002;48.134;-1.948;2023-09-19T05:05:22;3.35;;;0.50;;
74519;SDS011;63002;48.134;-1.948;2023-09-19T05:07:49;4.28;;;0.55;;
74519;SDS011;63002;48.134;-1.948;2023-09-19T05:10:16;3.92;;;0.70;;
74519;SDS011;63002;48.134;-1.948;2023-09-19T05:12:43;2.75;;;0.70;;
74519;SDS011;63002;48.134;-1.948;2023-09-19T05:15:13;4.13;;;0.90;;
74519;SDS011;63002;48.134;-1.948;2023-09-19T05:17:40;2.83;;;0.70;;
74519;SDS011;63002;48.134;-1.948;2023-09-19T05:20:06;3.70;;;0.70;;
74519;SDS011;63002;48.134;-1.948;2023-09-19T05:22:42;4.00;;;0.70;;
74519;SDS011;63002;48.134;-1.948;2023-09-19T05:25:08;7.38;;;0.80;;
74519;SDS011;63002;48.134;-1.948;2023-09-19T05:27:35;7.47;;;0.80;;
74519;SDS011;63002;48.134;-1.948;2023-09-19T05:30:00;6.90;;;0.85;;
74519;SDS011;63002;48.134;-1.948;2023-09-19T05:32:26;9.75;;;1.17;;
74519;SDS011;63002;48.134;-1.948;2023-09-19T05:34:52;8.33;;;1.00;;
74519;SDS011;63002;48.134;-1.948;2023-09-19T05:37:18;8.57;;;0.98;;
74519;SDS011;63002;48.134;-1.948;2023-09-19T05:39:44;12.45;;;1.10;;
74519;SDS011;63002;48.134;-1.948;2023-09-19T05:42:10;8.70;;;1.03;;
74519;SDS011;63002;48.134;-1.948;2023-09-19T05:44:36;5.88;;;1.38;;
74519;SDS011;63002;48.134;-1.948;2023-09-19T05:47:02;11.47;;;1.33;;
74519;SDS011;63002;48.134;-1.948;2023-09-19T05:49:28;10.07;;;1.00;;
74519;SDS011;63002;48.134;-1.948;2023-09-19T05:51:54;10.68;;;1.17;;
74519;SDS011;63002;48.134;-1.948;2023-09-19T05:54:21;15.00;;;1.38;;
74519;SDS011;63002;48.134;-1.948;2023-09-19T05:56:47;9.18;;;1.20;;
74519;SDS011;63002;48.134;-1.948;2023-09-19T05:59:13;8.82;;;1.17;;
74519;SDS011;63002;48.134;-1.948;2023-09-19T06:01:41;11.23;;;1.40;;
74519;SDS011;63002;48.134;-1.948;2023-09-19T06:04:07;9.75;;;1.88;;
74519;SDS011;63002;48.134;-1.948;2023-09-19T06:06:33;12.80;;;1.65;;
74519;SDS011;63002;48.134;-1.948;2023-09-19T06:09:05;11.05;;;1.20;;
74519;SDS011;63002;48.134;-1.948;2023-09-19T06:11:33;11.82;;;1.83;;
74519;SDS011;63002;48.134;-1.948;2023-09-19T06:14:02;7.80;;;1.23;;
74519;SDS011;63002;48.134;-1.948;2023-09-19T06:16:31;11.15;;;1.67;;
74519;SDS011;63002;48.134;-1.948;2023-09-19T06:18:57;14.55;;;1.48;;
74519;SDS011;63002;48.134;-1.948;2023-09-19T06:21:25;10.85;;;1.55;;
74519;SDS011;63002;48.134;-1.948;2023-09-19T06:23:52;12.30;;;1.67;;
74519;SDS011;63002;48.134;-1.948;2023-09-19T06:26:23;9.33;;;1.40;;
74519;SDS011;63002;48.134;-1.948;2023-09-19T06:28:51;9.32;;;1.33;;
74519;SDS011;63002;48.134;-1.948;2023-09-19T06:31:17;10.93;;;1.55;;
74519;SDS011;63002;48.134;-1.948;2023-09-19T06:33:43;10.27;;;1.40;;
74519;SDS011;63002;48.134;-1.948;2023-09-19T06:36:09;11.35;;;1.90;;
74519;SDS011;63002;48.134;-1.948;2023-09-19T06:38:36;10.77;;;1.70;;
74519;SDS011;63002;48.134;-1.948;2023-09-19T06:41:04;10.02;;;1.30;;
74519;SDS011;63002;48.134;-1.948;2023-09-19T06:43:30;9.45;;;1.67;;
74519;SDS011;63002;48.134;-1.948;2023-09-19T06:45:59;9.95;;;1.52;;
74519;SDS011;63002;48.134;-1.948;2023-09-19T06:48:29;9.23;;;1.48;;
74519;SDS011;63002;48.134;-1.948;2023-09-19T06:50:55;10.43;;;1.17;;
74519;SDS011;63002;48.134;-1.948;2023-09-19T06:53:23;10.93;;;1.57;;
74519;SDS011;63002;48.134;-1.948;2023-09-19T06:55:50;7.45;;;1.23;;
74519;SDS011;63002;48.134;-1.948;2023-09-19T06:58:16;9.20;;;1.42;;
74519;SDS011;63002;48.134;-1.948;2023-09-19T07:00:42;10.95;;;1.63;;
74519;SDS011;63002;48.134;-1.948;2023-09-19T07:03:08;8.10;;;1.33;;
74519;SDS011;63002;48.134;-1.948;2023-09-19T07:05:36;8.32;;;1.13;;
74519;SDS011;63002;48.134;-1.948;2023-09-19T07:08:03;10.57;;;1.35;;
74519;SDS011;63002;48.134;-1.948;2023-09-19T07:10:31;9.32;;;2.03;;
74519;SDS011;63002;48.134;-1.948;2023-09-19T07:15:23;9.63;;;1.43;;
74519;SDS011;63002;48.134;-1.948;2023-09-19T07:17:50;8.15;;;1.23;;
74519;SDS011;63002;48.134;-1.948;2023-09-19T07:20:18;11.50;;;1.95;;
74519;SDS011;63002;48.134;-1.948;2023-09-19T07:22:44;10.98;;;1.40;;
74519;SDS011;63002;48.134;-1.948;2023-09-19T07:25:10;9.38;;;1.42;;
74519;SDS011;63002;48.134;-1.948;2023-09-19T07:27:36;10.00;;;1.63;;
74519;SDS011;63002;48.134;-1.948;2023-09-19T07:30:01;8.67;;;1.77;;
74519;SDS011;63002;48.134;-1.948;2023-09-19T07:32:27;8.70;;;1.33;;
74519;SDS011;63002;48.134;-1.948;2023-09-19T07:34:53;9.27;;;1.60;;
74519;SDS011;63002;48.134;-1.948;2023-09-19T07:37:20;6.95;;;1.13;;
74519;SDS011;63002;48.134;-1.948;2023-09-19T07:39:46;7.45;;;1.33;;
74519;SDS011;63002;48.134;-1.948;2023-09-19T07:42:12;8.47;;;1.40;;
74519;SDS011;63002;48.134;-1.948;2023-09-19T07:44:43;8.57;;;1.50;;
74519;SDS011;63002;48.134;-1.948;2023-09-19T07:47:12;9.10;;;1.45;;
74519;SDS011;63002;48.134;-1.948;2023-09-19T07:49:39;9.70;;;1.58;;
74519;SDS011;63002;48.134;-1.948;2023-09-19T07:52:04;9.23;;;1.50;;
74519;SDS011;63002;48.134;-1.948;2023-09-19T07:54:30;8.15;;;1.20;;
74519;SDS011;63002;48.134;-1.948;2023-09-19T07:57:00;9.40;;;1.52;;
74519;SDS011;63002;48.134;-1.948;2023-09-19T07:59:26;7.78;;;1.63;;
74519;SDS011;63002;48.134;-1.948;2023-09-19T08:01:53;7.97;;;1.20;;
74519;SDS011;63002;48.134;-1.948;2023-09-19T08:04:19;8.27;;;1.48;;
74519;SDS011;63002;48.134;-1.948;2023-09-19T08:06:45;7.32;;;1.45;;
74519;SDS011;63002;48.134;-1.948;2023-09-19T08:09:11;6.50;;;1.20;;
74519;SDS011;63002;48.134;-1.948;2023-09-19T08:11:39;6.82;;;1.55;;
74519;SDS011;63002;48.134;-1.948;2023-09-19T08:14:04;8.38;;;1.40;;
74519;SDS011;63002;48.134;-1.948;2023-09-19T08:16:32;6.47;;;1.10;;
74519;SDS011;63002;48.134;-1.948;2023-09-19T08:18:58;8.75;;;1.70;;
74519;SDS011;63002;48.134;-1.948;2023-09-19T08:21:24;8.52;;;1.80;;
74519;SDS011;63002;48.134;-1.948;2023-09-19T08:23:51;8.30;;;1.30;;
74519;SDS011;63002;48.134;-1.948;2023-09-19T08:26:17;7.80;;;1.30;;
74519;SDS011;63002;48.134;-1.948;2023-09-19T08:28:44;7.95;;;1.50;;
74519;SDS011;63002;48.134;-1.948;2023-09-19T08:31:10;7.60;;;1.30;;
74519;SDS011;63002;48.134;-1.948;2023-09-19T08:33:36;9.20;;;1.43;;
74519;SDS011;63002;48.134;-1.948;2023-09-19T08:36:03;6.63;;;1.02;;
74519;SDS011;63002;48.134;-1.948;2023-09-19T08:38:30;6.03;;;1.48;;
74519;SDS011;63002;48.134;-1.948;2023-09-19T08:40:58;6.68;;;1.20;;
74519;SDS011;63002;48.134;-1.948;2023-09-19T08:43:25;6.53;;;1.10;;
74519;SDS011;63002;48.134;-1.948;2023-09-19T08:46:14;5.32;;;1.30;;
74519;SDS011;63002;48.134;-1.948;2023-09-19T08:48:50;5.22;;;1.40;;
74519;SDS011;63002;48.134;-1.948;2023-09-19T08:51:45;6.03;;;1.02;;
74519;SDS011;63002;48.134;-1.948;2023-09-19T08:54:21;6.00;;;1.10;;
74519;SDS011;63002;48.134;-1.948;2023-09-19T08:56:51;5.47;;;1.00;;
74519;SDS011;63002;48.134;-1.948;2023-09-19T08:59:22;6.10;;;1.00;;
74519;SDS011;63002;48.134;-1.948;2023-09-19T09:01:49;5.75;;;1.00;;
74519;SDS011;63002;48.134;-1.948;2023-09-19T09:04:18;4.65;;;1.02;;
74519;SDS011;63002;48.134;-1.948;2023-09-19T09:06:45;5.07;;;1.08;;
74519;SDS011;63002;48.134;-1.948;2023-09-19T09:09:14;5.35;;;1.23;;
74519;SDS011;63002;48.134;-1.948;2023-09-19T09:11:40;5.38;;;1.00;;
74519;SDS011;63002;48.134;-1.948;2023-09-19T09:14:06;6.10;;;1.00;;
74519;SDS011;63002;48.134;-1.948;2023-09-19T09:16:32;4.95;;;1.00;;
74519;SDS011;63002;48.134;-1.948;2023-09-19T09:18:58;5.10;;;1.13;;
74519;SDS011;63002;48.134;-1.948;2023-09-19T09:21:25;5.10;;;0.77;;
74519;SDS011;63002;48.134;-1.948;2023-09-19T09:23:51;6.50;;;1.20;;
74519;SDS011;63002;48.134;-1.948;2023-09-19T09:27:03;4.75;;;0.90;;
74519;SDS011;63002;48.134;-1.948;2023-09-19T09:29:04;5.20;;;0.90;;
74519;SDS011;63002;48.134;-1.948;2023-09-19T09:31:30;4.43;;;0.80;;
74519;SDS011;63002;48.134;-1.948;2023-09-19T09:33:56;4.28;;;0.90;;
74519;SDS011;63002;48.134;-1.948;2023-09-19T09:36:36;6.77;;;0.90;;
74519;SDS011;63002;48.134;-1.948;2023-09-19T09:39:03;4.88;;;1.10;;
74519;SDS011;63002;48.134;-1.948;2023-09-19T09:41:41;5.75;;;0.90;;
74519;SDS011;63002;48.134;-1.948;2023-09-19T09:44:15;4.03;;;0.88;;
74519;SDS011;63002;48.134;-1.948;2023-09-19T09:46:45;4.85;;;0.88;;
74519;SDS011;63002;48.134;-1.948;2023-09-19T09:49:24;5.17;;;0.87;;
74519;SDS011;63002;48.134;-1.948;2023-09-19T09:52:00;5.20;;;0.90;;
74519;SDS011;63002;48.134;-1.948;2023-09-19T09:54:32;4.57;;;1.08;;
74519;SDS011;63002;48.134;-1.948;2023-09-19T09:57:06;4.28;;;1.10;;
74519;SDS011;63002;48.134;-1.948;2023-09-19T10:02:30;5.00;;;0.77;;
74519;SDS011;63002;48.134;-1.948;2023-09-19T10:07:54;4.35;;;0.80;;
74519;SDS011;63002;48.134;-1.948;2023-09-19T10:10:36;4.55;;;0.80;;
74519;SDS011;63002;48.134;-1.948;2023-09-19T10:13:08;4.60;;;1.00;;
74519;SDS011;63002;48.134;-1.948;2023-09-19T10:15:38;4.20;;;0.83;;
74519;SDS011;63002;48.134;-1.948;2023-09-19T10:18:14;5.22;;;0.85;;
74519;SDS011;63002;48.134;-1.948;2023-09-19T10:20:44;4.22;;;0.60;;
74519;SDS011;63002;48.134;-1.948;2023-09-19T10:23:11;3.92;;;0.60;;
74519;SDS011;63002;48.134;-1.948;2023-09-19T10:25:41;3.17;;;0.52;;
74519;SDS011;63002;48.134;-1.948;2023-09-19T10:28:08;3.10;;;0.63;;
74519;SDS011;63002;48.134;-1.948;2023-09-19T10:30:42;4.63;;;1.13;;
74519;SDS011;63002;48.134;-1.948;2023-09-19T10:33:10;3.53;;;0.73;;
74519;SDS011;63002;48.134;-1.948;2023-09-19T10:35:56;3.65;;;0.68;;
74519;SDS011;63002;48.134;-1.948;2023-09-19T10:38:25;2.72;;;0.65;;
74519;SDS011;63002;48.134;-1.948;2023-09-19T10:40:54;5.00;;;1.00;;
74519;SDS011;63002;48.134;-1.948;2023-09-19T10:43:31;2.65;;;0.60;;
74519;SDS011;63002;48.134;-1.948;2023-09-19T10:46:00;3.67;;;0.73;;
74519;SDS011;63002;48.134;-1.948;2023-09-19T10:48:30;4.20;;;0.82;;
74519;SDS011;63002;48.134;-1.948;2023-09-19T10:53:25;3.47;;;0.60;;
74519;SDS011;63002;48.134;-1.948;2023-09-19T10:55:55;3.50;;;0.90;;
74519;SDS011;63002;48.134;-1.948;2023-09-19T10:58:28;6.38;;;0.77;;
74519;SDS011;63002;48.134;-1.948;2023-09-19T11:00:56;4.30;;;0.70;;
74519;SDS011;63002;48.134;-1.948;2023-09-19T11:03:37;4.85;;;0.70;;
74519;SDS011;63002;48.134;-1.948;2023-09-19T11:09:03;3.60;;;0.63;;
74519;SDS011;63002;48.134;-1.948;2023-09-19T11:30:31;3.90;;;0.70;;
74519;SDS011;63002;48.134;-1.948;2023-09-19T11:36:15;2.28;;;0.68;;
74519;SDS011;63002;48.134;-1.948;2023-09-19T11:46:13;3.17;;;0.80;;
74519;SDS011;63002;48.134;-1.948;2023-09-19T11:48:46;3.88;;;0.80;;
74519;SDS011;63002;48.134;-1.948;2023-09-19T11:51:15;2.78;;;0.60;;
74519;SDS011;63002;48.134;-1.948;2023-09-19T11:53:47;2.17;;;0.70;;
74519;SDS011;63002;48.134;-1.948;2023-09-19T11:56:15;2.05;;;0.60;;
74519;SDS011;63002;48.134;-1.948;2023-09-19T11:58:43;2.40;;;0.50;;
74519;SDS011;63002;48.134;-1.948;2023-09-19T12:01:14;3.10;;;0.60;;
74519;SDS011;63002;48.134;-1.948;2023-09-19T12:03:46;2.75;;;0.73;;
74519;SDS011;63002;48.134;-1.948;2023-09-19T12:06:15;2.42;;;0.60;;
74519;SDS011;63002;48.134;-1.948;2023-09-19T12:08:42;3.75;;;0.88;;
74519;SDS011;63002;48.134;-1.948;2023-09-19T12:11:12;3.63;;;0.70;;
74519;SDS011;63002;48.134;-1.948;2023-09-19T12:13:46;4.15;;;0.82;;
74519;SDS011;63002;48.134;-1.948;2023-09-19T12:16:17;3.55;;;0.82;;
74519;SDS011;63002;48.134;-1.948;2023-09-19T12:18:47;1.80;;;0.60;;
74519;SDS011;63002;48.134;-1.948;2023-09-19T12:21:30;3.58;;;0.70;;
74519;SDS011;63002;48.134;-1.948;2023-09-19T12:24:03;2.40;;;0.50;;
74519;SDS011;63002;48.134;-1.948;2023-09-19T12:26:30;2.80;;;0.60;;
74519;SDS011;63002;48.134;-1.948;2023-09-19T12:29:04;3.33;;;0.73;;
74519;SDS011;63002;48.134;-1.948;2023-09-19T12:31:30;2.63;;;0.50;;
74519;SDS011;63002;48.134;-1.948;2023-09-19T12:34:01;2.23;;;0.40;;
74519;SDS011;63002;48.134;-1.948;2023-09-19T12:36:27;2.75;;;0.68;;
74519;SDS011;63002;48.134;-1.948;2023-09-19T12:38:57;3.72;;;0.77;;
74519;SDS011;63002;48.134;-1.948;2023-09-19T12:41:33;1.83;;;0.50;;
74519;SDS011;63002;48.134;-1.948;2023-09-19T12:43:59;3.93;;;0.83;;
74519;SDS011;63002;48.134;-1.948;2023-09-19T12:46:30;4.22;;;0.70;;
74519;SDS011;63002;48.134;-1.948;2023-09-19T12:49:15;3.60;;;0.88;;
74519;SDS011;63002;48.134;-1.948;2023-09-19T12:51:42;3.08;;;0.75;;
74519;SDS011;63002;48.134;-1.948;2023-09-19T12:54:09;3.03;;;0.90;;
74519;SDS011;63002;48.134;-1.948;2023-09-19T12:56:40;2.67;;;0.63;;
74519;SDS011;63002;48.134;-1.948;2023-09-19T12:59:11;3.80;;;0.88;;
74519;SDS011;63002;48.134;-1.948;2023-09-19T13:01:39;2.72;;;0.70;;
74519;SDS011;63002;48.134;-1.948;2023-09-19T13:04:11;2.80;;;0.65;;
74519;SDS011;63002;48.134;-1.948;2023-09-19T13:06:38;3.50;;;0.77;;
74519;SDS011;63002;48.134;-1.948;2023-09-19T13:09:11;1.83;;;0.60;;
74519;SDS011;63002;48.134;-1.948;2023-09-19T13:11:39;2.25;;;0.70;;
74519;SDS011;63002;48.134;-1.948;2023-09-19T13:14:21;2.78;;;0.70;;
74519;SDS011;63002;48.134;-1.948;2023-09-19T13:17:04;1.80;;;0.50;;
74519;SDS011;63002;48.134;-1.948;2023-09-19T13:19:51;2.97;;;0.93;;
74519;SDS011;63002;48.134;-1.948;2023-09-19T13:25:15;3.10;;;0.90;;
74519;SDS011;63002;48.134;-1.948;2023-09-19T13:27:50;3.70;;;0.80;;
74519;SDS011;63002;48.134;-1.948;2023-09-19T13:30:19;2.85;;;0.80;;
74519;SDS011;63002;48.134;-1.948;2023-09-19T13:32:46;2.05;;;0.75;;
74519;SDS011;63002;48.134;-1.948;2023-09-19T13:35:12;2.57;;;0.70;;
74519;SDS011;63002;48.134;-1.948;2023-09-19T13:37:39;2.78;;;0.50;;
74519;SDS011;63002;48.134;-1.948;2023-09-19T13:40:10;3.75;;;0.70;;
74519;SDS011;63002;48.134;-1.948;2023-09-19T13:42:36;2.47;;;0.55;;
74519;SDS011;63002;48.134;-1.948;2023-09-19T13:45:03;2.17;;;0.70;;
74519;SDS011;63002;48.134;-1.948;2023-09-19T13:47:35;1.88;;;0.55;;
74519;SDS011;63002;48.134;-1.948;2023-09-19T13:50:03;2.90;;;0.70;;
74519;SDS011;63002;48.134;-1.948;2023-09-19T13:52:30;1.75;;;0.60;;
74519;SDS011;63002;48.134;-1.948;2023-09-19T13:54:56;3.33;;;0.70;;
74519;SDS011;63002;48.134;-1.948;2023-09-19T13:57:22;2.25;;;0.68;;
74519;SDS011;63002;48.134;-1.948;2023-09-19T13:59:49;3.38;;;0.73;;
74519;SDS011;63002;48.134;-1.948;2023-09-19T14:02:14;2.33;;;0.70;;
74519;SDS011;63002;48.134;-1.948;2023-09-19T14:04:43;1.90;;;0.60;;
74519;SDS011;63002;48.134;-1.948;2023-09-19T14:07:09;2.80;;;0.85;;
74519;SDS011;63002;48.134;-1.948;2023-09-19T14:09:36;1.88;;;0.60;;
74519;SDS011;63002;48.134;-1.948;2023-09-19T14:12:03;2.33;;;0.50;;
74519;SDS011;63002;48.134;-1.948;2023-09-19T14:14:28;2.95;;;0.50;;
74519;SDS011;63002;48.134;-1.948;2023-09-19T14:16:54;2.43;;;0.70;;
74519;SDS011;63002;48.134;-1.948;2023-09-19T14:19:21;1.55;;;0.50;;
74519;SDS011;63002;48.134;-1.948;2023-09-19T14:21:46;2.72;;;0.63;;
74519;SDS011;63002;48.134;-1.948;2023-09-19T14:24:18;2.73;;;0.70;;
74519;SDS011;63002;48.134;-1.948;2023-09-19T14:26:45;3.03;;;0.55;;
74519;SDS011;63002;48.134;-1.948;2023-09-19T14:29:10;3.65;;;0.70;;
74519;SDS011;63002;48.134;-1.948;2023-09-19T14:31:37;2.85;;;0.90;;
74519;SDS011;63002;48.134;-1.948;2023-09-19T14:34:06;2.88;;;0.70;;
74519;SDS011;63002;48.134;-1.948;2023-09-19T14:36:34;2.33;;;0.75;;
74519;SDS011;63002;48.134;-1.948;2023-09-19T14:39:00;2.63;;;0.77;;
74519;SDS011;63002;48.134;-1.948;2023-09-19T14:41:26;3.90;;;1.00;;
74519;SDS011;63002;48.134;-1.948;2023-09-19T14:43:52;2.30;;;0.65;;
74519;SDS011;63002;48.134;-1.948;2023-09-19T14:46:18;2.92;;;0.90;;
74519;SDS011;63002;48.134;-1.948;2023-09-19T14:48:44;3.63;;;0.87;;
74519;SDS011;63002;48.134;-1.948;2023-09-19T14:51:13;3.10;;;0.88;;
74519;SDS011;63002;48.134;-1.948;2023-09-19T14:53:39;2.15;;;0.60;;
74519;SDS011;63002;48.134;-1.948;2023-09-19T14:56:09;2.15;;;0.70;;
74519;SDS011;63002;48.134;-1.948;2023-09-19T14:58:36;1.92;;;0.60;;
74519;SDS011;63002;48.134;-1.948;2023-09-19T15:01:10;1.65;;;0.57;;
74519;SDS011;63002;48.134;-1.948;2023-09-19T15:03:38;3.97;;;0.90;;
74519;SDS011;63002;48.134;-1.948;2023-09-19T15:06:07;2.35;;;0.75;;
74519;SDS011;63002;48.134;-1.948;2023-09-19T15:08:35;5.05;;;0.73;;
74519;SDS011;63002;48.134;-1.948;2023-09-19T15:11:05;2.60;;;0.75;;
74519;SDS011;63002;48.134;-1.948;2023-09-19T15:13:32;3.47;;;0.73;;
74519;SDS011;63002;48.134;-1.948;2023-09-19T15:15:59;1.70;;;0.60;;
74519;SDS011;63002;48.134;-1.948;2023-09-19T15:18:28;2.25;;;0.55;;
74519;SDS011;63002;48.134;-1.948;2023-09-19T15:21:01;2.67;;;0.90;;
74519;SDS011;63002;48.134;-1.948;2023-09-19T15:23:29;2.58;;;0.73;;
74519;SDS011;63002;48.134;-1.948;2023-09-19T15:25:56;2.53;;;0.80;;
74519;SDS011;63002;48.134;-1.948;2023-09-19T15:28:22;2.55;;;0.70;;
74519;SDS011;63002;48.134;-1.948;2023-09-19T15:30:56;2.70;;;0.70;;
74519;SDS011;63002;48.134;-1.948;2023-09-19T15:33:24;2.53;;;0.65;;
74519;SDS011;63002;48.134;-1.948;2023-09-19T15:36:00;2.60;;;0.70;;
74519;SDS011;63002;48.134;-1.948;2023-09-19T15:38:27;3.97;;;0.80;;
74519;SDS011;63002;48.134;-1.948;2023-09-19T15:40:53;3.55;;;0.70;;
74519;SDS011;63002;48.134;-1.948;2023-09-19T15:43:20;4.43;;;0.90;;
74519;SDS011;63002;48.134;-1.948;2023-09-19T15:45:47;5.70;;;0.80;;
74519;SDS011;63002;48.134;-1.948;2023-09-19T15:48:14;4.70;;;1.00;;
74519;SDS011;63002;48.134;-1.948;2023-09-19T15:50:39;4.80;;;0.80;;
74519;SDS011;63002;48.134;-1.948;2023-09-19T15:53:07;4.50;;;1.10;;
74519;SDS011;63002;48.134;-1.948;2023-09-19T15:55:38;4.73;;;1.03;;
74519;SDS011;63002;48.134;-1.948;2023-09-19T15:58:04;2.88;;;0.70;;
74519;SDS011;63002;48.134;-1.948;2023-09-19T16:00:34;3.65;;;0.63;;
74519;SDS011;63002;48.134;-1.948;2023-09-19T16:03:01;3.88;;;0.60;;
74519;SDS011;63002;48.134;-1.948;2023-09-19T16:05:27;3.67;;;1.00;;
74519;SDS011;63002;48.134;-1.948;2023-09-19T16:08:02;3.27;;;0.60;;
74519;SDS011;63002;48.134;-1.948;2023-09-19T16:10:29;10.30;;;1.08;;
74519;SDS011;63002;48.134;-1.948;2023-09-19T16:12:54;7.07;;;0.95;;
74519;SDS011;63002;48.134;-1.948;2023-09-19T16:15:20;6.03;;;1.37;;
74519;SDS011;63002;48.134;-1.948;2023-09-19T16:17:46;4.50;;;1.10;;
74519;SDS011;63002;48.134;-1.948;2023-09-19T16:20:12;5.60;;;1.07;;
74519;SDS011;63002;48.134;-1.948;2023-09-19T16:22:38;7.40;;;1.30;;
74519;SDS011;63002;48.134;-1.948;2023-09-19T16:25:05;7.80;;;1.70;;
74519;SDS011;63002;48.134;-1.948;2023-09-19T16:27:31;6.60;;;1.48;;
74519;SDS011;63002;48.134;-1.948;2023-09-19T16:29:57;12.73;;;3.00;;
74519;SDS011;63002;48.134;-1.948;2023-09-19T16:32:23;13.13;;;2.90;;
74519;SDS011;63002;48.134;-1.948;2023-09-19T16:34:48;9.80;;;2.25;;
74519;SDS011;63002;48.134;-1.948;2023-09-19T16:37:14;13.03;;;2.43;;
74519;SDS011;63002;48.134;-1.948;2023-09-19T16:39:40;12.95;;;3.05;;
74519;SDS011;63002;48.134;-1.948;2023-09-19T16:42:07;9.23;;;2.22;;
74519;SDS011;63002;48.134;-1.948;2023-09-19T16:44:34;12.47;;;2.57;;
74519;SDS011;63002;48.134;-1.948;2023-09-19T16:47:00;11.60;;;2.78;;
74519;SDS011;63002;48.134;-1.948;2023-09-19T16:49:28;11.15;;;2.50;;
74519;SDS011;63002;48.134;-1.948;2023-09-19T16:51:55;8.60;;;2.00;;
74519;SDS011;63002;48.134;-1.948;2023-09-19T16:54:21;8.55;;;2.22;;
74519;SDS011;63002;48.134;-1.948;2023-09-19T16:56:48;22.65;;;6.28;;
74519;SDS011;63002;48.134;-1.948;2023-09-19T16:59:14;11.10;;;2.78;;
74519;SDS011;63002;48.134;-1.948;2023-09-19T17:01:40;14.20;;;3.33;;
74519;SDS011;63002;48.134;-1.948;2023-09-19T17:04:06;15.23;;;3.67;;
74519;SDS011;63002;48.134;-1.948;2023-09-19T17:06:33;12.25;;;3.40;;
74519;SDS011;63002;48.134;-1.948;2023-09-19T17:08:59;13.55;;;3.55;;
74519;SDS011;63002;48.134;-1.948;2023-09-19T17:11:24;12.35;;;3.15;;
74519;SDS011;63002;48.134;-1.948;2023-09-19T17:13:51;14.52;;;3.20;;
74519;SDS011;63002;48.134;-1.948;2023-09-19T17:16:22;10.65;;;2.70;;
74519;SDS011;63002;48.134;-1.948;2023-09-19T17:18:51;10.15;;;3.13;;
74519;SDS011;63002;48.134;-1.948;2023-09-19T17:21:18;11.75;;;3.13;;
74519;SDS011;63002;48.134;-1.948;2023-09-19T17:23:44;12.00;;;2.90;;
74519;SDS011;63002;48.134;-1.948;2023-09-19T17:26:11;10.50;;;2.60;;
74519;SDS011;63002;48.134;-1.948;2023-09-19T17:28:45;12.30;;;2.90;;
74519;SDS011;63002;48.134;-1.948;2023-09-19T17:31:13;10.35;;;2.53;;
74519;SDS011;63002;48.134;-1.948;2023-09-19T17:33:44;10.63;;;3.08;;
74519;SDS011;63002;48.134;-1.948;2023-09-19T17:36:16;11.18;;;2.85;;
74519;SDS011;63002;48.134;-1.948;2023-09-19T17:38:43;16.52;;;2.65;;
74519;SDS011;63002;48.134;-1.948;2023-09-19T17:41:10;11.57;;;3.08;;
74519;SDS011;63002;48.134;-1.948;2023-09-19T17:43:39;14.55;;;2.83;;
74519;SDS011;63002;48.134;-1.948;2023-09-19T17:46:15;11.43;;;2.73;;
74519;SDS011;63002;48.134;-1.948;2023-09-19T17:48:45;8.35;;;2.15;;
74519;SDS011;63002;48.134;-1.948;2023-09-19T17:51:18;14.40;;;2.40;;
74519;SDS011;63002;48.134;-1.948;2023-09-19T17:53:44;7.72;;;1.92;;
74519;SDS011;63002;48.134;-1.948;2023-09-19T17:56:11;9.45;;;2.22;;
74519;SDS011;63002;48.134;-1.948;2023-09-19T17:58:39;8.27;;;2.33;;
74519;SDS011;63002;48.134;-1.948;2023-09-19T18:01:11;8.75;;;2.05;;
74519;SDS011;63002;48.134;-1.948;2023-09-19T18:03:38;10.45;;;2.25;;
74519;SDS011;63002;48.134;-1.948;2023-09-19T18:06:06;17.30;;;2.70;;
74519;SDS011;63002;48.134;-1.948;2023-09-19T18:08:32;15.80;;;2.63;;
74519;SDS011;63002;48.134;-1.948;2023-09-19T18:10:59;7.97;;;2.03;;
74519;SDS011;63002;48.134;-1.948;2023-09-19T18:13:26;11.55;;;2.40;;
74519;SDS011;63002;48.134;-1.948;2023-09-19T18:15:52;11.23;;;2.50;;
74519;SDS011;63002;48.134;-1.948;2023-09-19T18:18:19;10.30;;;2.50;;
74519;SDS011;63002;48.134;-1.948;2023-09-19T18:20:45;11.13;;;2.42;;
74519;SDS011;63002;48.134;-1.948;2023-09-19T18:23:11;8.85;;;2.22;;
74519;SDS011;63002;48.134;-1.948;2023-09-19T18:25:37;8.70;;;2.30;;
74519;SDS011;63002;48.134;-1.948;2023-09-19T18:28:04;9.60;;;2.27;;
74519;SDS011;63002;48.134;-1.948;2023-09-19T18:30:30;12.13;;;2.60;;
74519;SDS011;63002;48.134;-1.948;2023-09-19T18:32:58;16.20;;;2.45;;
74519;SDS011;63002;48.134;-1.948;2023-09-19T18:35:25;9.15;;;2.65;;
74519;SDS011;63002;48.134;-1.948;2023-09-19T18:37:54;10.30;;;2.35;;
74519;SDS011;63002;48.134;-1.948;2023-09-19T18:40:23;12.90;;;2.37;;
74519;SDS011;63002;48.134;-1.948;2023-09-19T18:42:49;8.95;;;2.55;;
74519;SDS011;63002;48.134;-1.948;2023-09-19T18:45:15;11.27;;;2.55;;
74519;SDS011;63002;48.134;-1.948;2023-09-19T18:47:41;13.87;;;2.83;;
74519;SDS011;63002;48.134;-1.948;2023-09-19T18:50:07;9.40;;;2.38;;
74519;SDS011;63002;48.134;-1.948;2023-09-19T18:52:36;9.38;;;2.45;;
74519;SDS011;63002;48.134;-1.948;2023-09-19T18:55:07;9.80;;;2.45;;
74519;SDS011;63002;48.134;-1.948;2023-09-19T18:57:34;10.93;;;2.20;;
74519;SDS011;63002;48.134;-1.948;2023-09-19T19:00:02;12.52;;;2.20;;
74519;SDS011;63002;48.134;-1.948;2023-09-19T19:02:28;14.48;;;2.60;;
74519;SDS011;63002;48.134;-1.948;2023-09-19T19:04:54;13.90;;;2.80;;
74519;SDS011;63002;48.134;-1.948;2023-09-19T19:07:23;14.17;;;2.80;;
74519;SDS011;63002;48.134;-1.948;2023-09-19T19:09:49;11.68;;;2.30;;
74519;SDS011;63002;48.134;-1.948;2023-09-19T19:12:14;10.07;;;2.88;;
74519;SDS011;63002;48.134;-1.948;2023-09-19T19:14:40;12.30;;;2.77;;
74519;SDS011;63002;48.134;-1.948;2023-09-19T19:17:09;9.68;;;2.20;;
74519;SDS011;63002;48.134;-1.948;2023-09-19T19:19:37;12.52;;;2.63;;
74519;SDS011;63002;48.134;-1.948;2023-09-19T19:22:04;16.95;;;2.67;;
74519;SDS011;63002;48.134;-1.948;2023-09-19T19:24:31;12.45;;;3.10;;
74519;SDS011;63002;48.134;-1.948;2023-09-19T19:26:58;11.52;;;2.20;;
74519;SDS011;63002;48.134;-1.948;2023-09-19T19:29:24;13.73;;;2.67;;
74519;SDS011;63002;48.134;-1.948;2023-09-19T19:31:50;12.32;;;2.40;;
74519;SDS011;63002;48.134;-1.948;2023-09-19T19:34:17;10.20;;;2.22;;
74519;SDS011;63002;48.134;-1.948;2023-09-19T19:36:43;11.55;;;2.80;;
74519;SDS011;63002;48.134;-1.948;2023-09-19T19:39:12;13.57;;;2.85;;
74519;SDS011;63002;48.134;-1.948;2023-09-19T19:41:40;8.18;;;2.33;;
74519;SDS011;63002;48.134;-1.948;2023-09-19T19:44:08;12.57;;;2.20;;
74519;SDS011;63002;48.134;-1.948;2023-09-19T19:46:35;9.80;;;2.20;;
74519;SDS011;63002;48.134;-1.948;2023-09-19T19:49:01;10.63;;;2.40;;
74519;SDS011;63002;48.134;-1.948;2023-09-19T19:51:27;12.13;;;2.38;;
74519;SDS011;63002;48.134;-1.948;2023-09-19T19:53:53;11.35;;;2.45;;
74519;SDS011;63002;48.134;-1.948;2023-09-19T19:56:21;8.03;;;2.00;;
74519;SDS011;63002;48.134;-1.948;2023-09-19T19:58:47;9.50;;;2.10;;
74519;SDS011;63002;48.134;-1.948;2023-09-19T20:01:13;8.23;;;2.40;;
74519;SDS011;63002;48.134;-1.948;2023-09-19T20:03:40;9.68;;;2.08;;
74519;SDS011;63002;48.134;-1.948;2023-09-19T20:06:07;11.68;;;2.10;;
74519;SDS011;63002;48.134;-1.948;2023-09-19T20:08:34;14.73;;;2.30;;
74519;SDS011;63002;48.134;-1.948;2023-09-19T20:11:04;12.32;;;3.65;;
74519;SDS011;63002;48.134;-1.948;2023-09-19T20:13:31;16.92;;;3.58;;
74519;SDS011;63002;48.134;-1.948;2023-09-19T20:15:58;18.95;;;4.20;;
74519;SDS011;63002;48.134;-1.948;2023-09-19T20:18:25;18.33;;;3.40;;
74519;SDS011;63002;48.134;-1.948;2023-09-19T20:20:53;19.83;;;3.75;;
74519;SDS011;63002;48.134;-1.948;2023-09-19T20:23:20;15.63;;;4.47;;
74519;SDS011;63002;48.134;-1.948;2023-09-19T20:25:47;14.68;;;3.58;;